createdAt,value
2024-02-03T00:00:39.656Z,91908.25
2024-02-03T00:03:06.490Z,91900.44
2024-02-03T00:05:33.234Z,91908.41
2024-02-03T00:07:59.937Z,91907.16
2024-02-03T00:10:26.721Z,91905.03
2024-02-03T00:12:53.638Z,91909.75
2024-02-03T00:15:22.903Z,91900.59
2024-02-03T00:17:49.877Z,91901.50
2024-02-03T00:20:16.819Z,91901.66
2024-02-03T00:22:47.071Z,91897.56
2024-02-03T00:25:13.967Z,91900.16
2024-02-03T00:27:40.766Z,91893.47
2024-02-03T00:30:08.745Z,91905.50
2024-02-03T00:32:35.583Z,91902.28
2024-02-03T00:35:02.321Z,91903.19
2024-02-03T00:37:29.108Z,91904.09
2024-02-03T00:39:55.985Z,91901.84
2024-02-03T00:42:22.747Z,91897.41
2024-02-03T00:44:49.447Z,91897.72
2024-02-03T00:47:16.292Z,91894.66
2024-02-03T00:49:45.785Z,91896.22
2024-02-03T00:52:12.667Z,91888.91
2024-02-03T00:54:39.653Z,91892.25
2024-02-03T00:57:08.871Z,91895.44
2024-02-03T00:59:36.891Z,91894.41
2024-02-03T01:02:04.751Z,91885.38
2024-02-03T01:04:31.513Z,91891.66
2024-02-03T01:07:00.380Z,91889.38
2024-02-03T01:09:27.420Z,91895.00
2024-02-03T01:11:55.708Z,91894.84
2024-02-03T01:14:22.751Z,91888.44
2024-02-03T01:16:50.051Z,91889.66
2024-02-03T01:19:18.191Z,91895.00
2024-02-03T01:21:45.132Z,91890.72
2024-02-03T01:24:11.968Z,91892.53
2024-02-03T01:26:38.718Z,91892.69
2024-02-03T01:29:05.535Z,91891.81
2024-02-03T01:31:32.232Z,91885.84
2024-02-03T01:34:00.136Z,91884.19
2024-02-03T01:36:27.112Z,91885.38
2024-02-03T01:38:54.942Z,91882.94
2024-02-03T01:41:21.673Z,91877.28
2024-02-03T01:43:48.532Z,91864.19
2024-02-03T01:46:17.728Z,91855.63
2024-02-03T01:48:44.740Z,91867.66
2024-02-03T01:51:13.022Z,91866.59
2024-02-03T01:53:40.673Z,91859.56
2024-02-03T01:56:07.964Z,91866.59
2024-02-03T01:58:34.777Z,91869.06
2024-02-03T02:01:01.569Z,91862.03
2024-02-03T02:03:28.442Z,91865.38
2024-02-03T02:05:55.284Z,91862.16
2024-02-03T02:08:32.882Z,91861.63
2024-02-03T02:10:59.957Z,91873.53
2024-02-03T02:13:27.145Z,91870.19
2024-02-03T02:15:53.998Z,91859.06
2024-02-03T02:18:21.156Z,91858.91
2024-02-03T02:20:48.194Z,91852.16
2024-02-03T02:23:14.973Z,91857.00
2024-02-03T02:25:41.671Z,91864.09
2024-02-03T02:28:08.374Z,91865.50
2024-02-03T02:30:35.237Z,91860.59
2024-02-03T02:33:03.814Z,91859.09
2024-02-03T02:35:30.626Z,91863.91
2024-02-03T02:37:57.254Z,91856.78
2024-02-03T02:40:23.986Z,91851.69
2024-02-03T02:42:50.793Z,91860.44
2024-02-03T02:45:17.649Z,91861.84
2024-02-03T02:47:54.442Z,91858.34
2024-02-03T02:50:21.313Z,91855.38
2024-02-03T02:52:47.993Z,91866.41
2024-02-03T02:55:15.101Z,91863.16
2024-02-03T02:57:41.938Z,91857.72
2024-02-03T03:00:11.284Z,91858.88
2024-02-03T03:02:38.498Z,91853.13
2024-02-03T03:05:05.585Z,91827.16
2024-02-03T03:07:32.440Z,91849.50
2024-02-03T03:09:59.189Z,91849.88
2024-02-03T03:12:26.476Z,91851.03
2024-02-03T03:14:53.249Z,91850.66
2024-02-03T03:17:20.040Z,91843.25
2024-02-03T03:19:47.116Z,91840.31
2024-02-03T03:22:14.855Z,91853.84
2024-02-03T03:24:43.408Z,91853.84
2024-02-03T03:27:10.307Z,91858.22
2024-02-03T03:29:38.752Z,91856.16
2024-02-03T03:32:05.791Z,91860.38
2024-02-03T03:34:32.739Z,91865.38
2024-02-03T03:36:59.506Z,91855.91
2024-02-03T03:39:26.288Z,91858.31
2024-02-03T03:41:55.080Z,91849.34
2024-02-03T03:44:22.321Z,91861.00
2024-02-03T03:46:49.147Z,91856.63
2024-02-03T03:49:15.975Z,91857.00
2024-02-03T03:51:42.777Z,91853.81
2024-02-03T03:54:09.627Z,91860.06
2024-02-03T03:56:36.810Z,91861.28
2024-02-03T03:59:03.531Z,91856.50
2024-02-03T04:01:30.228Z,91842.66
2024-02-03T04:03:58.289Z,91846.66
2024-02-03T04:06:25.357Z,91848.94
2024-02-03T04:08:52.047Z,91837.59
2024-02-03T04:11:18.811Z,91841.50
2024-02-03T04:13:46.121Z,91841.97
2024-02-03T04:16:12.885Z,91843.47
2024-02-03T04:18:39.697Z,91843.06
2024-02-03T04:21:06.476Z,91840.50
2024-02-03T04:23:33.216Z,91843.00
2024-02-03T04:26:00.045Z,91841.84
2024-02-03T04:28:26.735Z,91830.59
2024-02-03T04:30:56.441Z,91829.91
2024-02-03T04:33:23.290Z,91837.06
2024-02-03T04:35:50.078Z,91830.41
2024-02-03T04:38:16.744Z,91832.97
2024-02-03T04:40:43.413Z,91838.19
2024-02-03T04:43:10.145Z,91827.66
2024-02-03T04:45:36.910Z,91847.34
2024-02-03T04:48:03.856Z,91853.53
2024-02-03T04:50:30.585Z,91845.41
2024-02-03T04:52:58.607Z,91842.56
2024-02-03T04:55:25.472Z,91854.06
2024-02-03T04:57:52.291Z,91854.06
2024-02-03T05:00:19.407Z,91838.97
2024-02-03T05:02:46.697Z,91849.41
2024-02-03T05:05:13.474Z,91853.75
2024-02-03T05:07:40.177Z,91861.72
2024-02-03T05:10:07.253Z,91856.94
2024-02-03T05:12:34.490Z,91849.16
2024-02-03T05:15:04.921Z,91856.56
2024-02-03T05:17:32.469Z,91852.41
2024-02-03T05:19:59.190Z,91853.88
2024-02-03T05:22:25.938Z,91844.63
2024-02-03T05:24:52.784Z,91849.00
2024-02-03T05:27:20.526Z,91845.72
2024-02-03T05:29:47.430Z,91852.72
2024-02-03T05:32:14.369Z,91851.72
2024-02-03T05:34:41.215Z,91852.38
2024-02-03T05:37:08.000Z,91850.75
2024-02-03T05:39:34.727Z,91855.28
2024-02-03T05:42:01.426Z,91853.25
2024-02-03T05:44:28.110Z,91845.31
2024-02-03T05:46:54.770Z,91854.09
2024-02-03T05:49:21.509Z,91844.69
2024-02-03T05:51:48.305Z,91840.09
2024-02-03T05:54:15.079Z,91853.72
2024-02-03T05:56:42.120Z,91858.28
2024-02-03T05:59:26.455Z,91858.56
2024-02-03T06:01:56.310Z,91854.44
2024-02-03T06:04:25.428Z,91860.56
2024-02-03T06:06:52.273Z,91859.44
2024-02-03T06:09:20.128Z,91852.28
2024-02-03T06:11:46.899Z,91852.38
2024-02-03T06:14:13.582Z,91856.53
2024-02-03T06:16:40.265Z,91855.28
2024-02-03T06:19:07.049Z,91854.72
2024-02-03T06:21:34.438Z,91846.53
2024-02-03T06:24:01.236Z,91838.28
2024-02-03T06:26:31.468Z,91845.72
2024-02-03T06:28:58.752Z,91848.09
2024-02-03T06:31:27.789Z,91838.06
2024-02-03T06:33:54.833Z,91846.84
2024-02-03T06:36:23.120Z,91837.34
2024-02-03T06:38:49.817Z,91844.09
2024-02-03T06:41:19.419Z,91832.78
2024-02-03T06:43:46.180Z,91838.56
2024-02-03T06:46:14.393Z,91841.22
2024-02-03T06:48:41.290Z,91840.03
2024-02-03T06:51:07.948Z,91815.63
2024-02-03T06:53:35.160Z,91840.31
2024-02-03T06:56:01.862Z,91832.03
2024-02-03T06:58:30.168Z,91832.09
2024-02-03T07:00:57.049Z,91835.69
2024-02-03T07:03:24.187Z,91842.47
2024-02-03T07:05:50.878Z,91836.47
2024-02-03T07:08:17.553Z,91842.09
2024-02-03T07:10:44.301Z,91829.94
2024-02-03T07:13:10.988Z,91831.06
2024-02-03T07:15:38.043Z,91828.22
2024-02-03T07:18:05.048Z,91831.31
2024-02-03T07:20:33.273Z,91826.28
2024-02-03T07:23:00.066Z,91827.19
2024-02-03T07:25:27.925Z,91827.75
2024-02-03T07:27:54.618Z,91824.38
2024-02-03T07:30:21.354Z,91821.69
2024-02-03T07:32:48.165Z,91825.47
2024-02-03T07:35:14.979Z,91821.69
2024-02-03T07:37:41.757Z,91823.47
2024-02-03T07:40:09.171Z,91815.66
2024-02-03T07:42:37.154Z,91816.22
2024-02-03T07:45:04.201Z,91820.03
2024-02-03T07:47:31.269Z,91816.94
2024-02-03T07:49:57.973Z,91807.72
2024-02-03T07:52:32.132Z,91812.88
2024-02-03T07:55:04.723Z,91805.78
2024-02-03T07:57:31.417Z,91796.63
2024-02-03T07:59:58.103Z,91799.22
2024-02-03T08:02:25.868Z,91793.59
2024-02-03T08:04:52.715Z,91798.72
2024-02-03T08:07:19.451Z,91796.03
2024-02-03T08:09:47.245Z,91790.59
2024-02-03T08:12:13.966Z,91798.81
2024-02-03T08:14:40.682Z,91792.78
2024-02-03T08:17:08.815Z,91793.91
2024-02-03T08:19:38.493Z,91782.28
2024-02-03T08:22:05.295Z,91784.75
2024-02-03T08:24:31.987Z,91783.81
2024-02-03T08:26:58.962Z,91777.03
2024-02-03T08:29:26.572Z,91773.25
2024-02-03T08:31:54.244Z,91774.91
2024-02-03T08:34:23.797Z,91775.50
2024-02-03T08:36:50.676Z,91773.06
2024-02-03T08:41:47.148Z,91766.09
2024-02-03T08:44:13.960Z,91770.19
2024-02-03T08:46:40.646Z,91769.03
2024-02-03T08:49:07.467Z,91775.16
2024-02-03T08:51:34.225Z,91771.75
2024-02-03T08:54:01.238Z,91773.97
2024-02-03T08:56:28.920Z,91767.97
2024-02-03T08:58:55.643Z,91766.69
2024-02-03T09:01:22.420Z,91761.22
2024-02-03T09:03:54.430Z,91771.28
2024-02-03T09:06:21.493Z,91767.16
2024-02-03T09:08:49.670Z,91763.72
2024-02-03T09:11:18.034Z,91754.66
2024-02-03T09:13:45.892Z,91752.91
2024-02-03T09:16:12.742Z,91748.69
2024-02-03T09:18:40.206Z,91747.56
2024-02-03T09:21:11.405Z,91752.84
2024-02-03T09:23:41.579Z,91736.53
2024-02-03T09:26:10.234Z,91734.81
2024-02-03T09:28:39.806Z,91734.97
2024-02-03T09:31:07.007Z,91743.81
2024-02-03T09:33:34.154Z,91729.81
2024-02-03T09:36:05.266Z,91720.19
2024-02-03T09:38:31.958Z,91726.72
2024-02-03T09:40:59.412Z,91717.09
2024-02-03T09:43:27.808Z,91704.78
2024-02-03T09:45:54.980Z,91697.28
2024-02-03T09:48:24.571Z,91705.94
2024-02-03T09:50:52.004Z,91699.88
2024-02-03T09:53:18.729Z,91686.34
2024-02-03T09:55:46.047Z,91682.06
2024-02-03T09:58:12.714Z,91678.28
2024-02-03T10:00:39.512Z,91679.78
2024-02-03T10:03:17.681Z,91670.34
2024-02-03T10:05:44.421Z,91676.66
2024-02-03T10:08:11.330Z,91681.44
2024-02-03T10:13:17.205Z,91664.41
2024-02-03T10:15:45.076Z,91655.81
2024-02-03T10:18:11.852Z,91656.41
2024-02-03T10:20:38.755Z,91647.44
2024-02-03T10:23:08.334Z,91642.84
2024-02-03T10:25:36.237Z,91637.31
2024-02-03T10:28:05.199Z,91629.22
2024-02-03T10:30:39.502Z,91627.94
2024-02-03T10:33:07.814Z,91621.34
2024-02-03T10:35:36.266Z,91627.50
2024-02-03T10:38:03.471Z,91614.47
2024-02-03T10:40:35.364Z,91611.13
2024-02-03T10:43:03.749Z,91605.94
2024-02-03T10:45:32.764Z,91608.66
2024-02-03T10:48:03.581Z,91594.88
2024-02-03T10:50:46.192Z,91595.16
2024-02-03T10:53:38.019Z,91596.09
2024-02-03T10:56:07.428Z,91594.09
2024-02-03T10:58:34.722Z,91590.69
2024-02-03T11:01:22.384Z,91600.31
2024-02-03T11:03:50.402Z,91584.06
2024-02-03T11:06:31.450Z,91586.97
2024-02-03T11:09:15.088Z,91588.63
2024-02-03T11:11:42.623Z,91578.84
2024-02-03T11:14:17.075Z,91565.25
2024-02-03T11:16:44.312Z,91562.69
2024-02-03T11:19:12.791Z,91546.31
2024-02-03T11:21:45.969Z,91557.19
2024-02-03T11:24:12.808Z,91572.91
2024-02-03T11:26:39.766Z,91562.09
2024-02-03T11:29:10.689Z,91558.44
2024-02-03T11:31:37.384Z,91557.63
2024-02-03T11:34:04.814Z,91561.00
2024-02-03T11:36:31.644Z,91561.31
2024-02-03T11:38:58.511Z,91561.88
2024-02-03T11:41:25.439Z,91563.75
2024-02-03T11:43:52.233Z,91560.78
2024-02-03T11:46:19.267Z,91565.25
2024-02-03T11:48:48.525Z,91571.66
2024-02-03T11:51:16.844Z,91556.97
2024-02-03T11:53:44.330Z,91564.13
2024-02-03T11:56:11.057Z,91558.53
2024-02-03T11:58:42.831Z,91560.66
2024-02-03T12:01:11.144Z,91576.19
2024-02-03T12:03:38.730Z,91565.78
2024-02-03T12:06:06.612Z,91576.13
2024-02-03T12:08:33.878Z,91570.56
2024-02-03T12:11:00.868Z,91561.63
2024-02-03T12:13:37.580Z,91569.88
2024-02-03T12:16:05.480Z,91572.66
2024-02-03T12:18:32.423Z,91576.00
2024-02-03T12:20:59.757Z,91579.53
2024-02-03T12:23:29.981Z,91583.66
2024-02-03T12:25:56.698Z,91588.38
2024-02-03T12:28:26.112Z,91587.81
2024-02-03T12:31:00.503Z,91586.56
2024-02-03T12:33:27.948Z,91580.13
2024-02-03T12:35:54.927Z,91572.06
2024-02-03T12:38:22.780Z,91566.28
2024-02-03T12:40:49.853Z,91567.66
2024-02-03T12:43:16.614Z,91555.97
2024-02-03T12:45:43.704Z,91558.78
2024-02-03T12:48:10.501Z,91560.56
2024-02-03T12:50:37.266Z,91561.91
2024-02-03T12:53:04.290Z,91562.00
2024-02-03T12:55:31.017Z,91561.03
2024-02-03T12:57:59.889Z,91567.84
2024-02-03T13:00:26.769Z,91560.94
2024-02-03T13:02:56.326Z,91550.63
2024-02-03T13:05:24.296Z,91561.44
2024-02-03T13:07:54.501Z,91550.78
2024-02-03T13:10:21.385Z,91549.28
2024-02-03T13:12:48.735Z,91558.09
2024-02-03T13:15:16.126Z,91548.38
2024-02-03T13:17:43.904Z,91546.41
2024-02-03T13:20:11.523Z,91552.56
2024-02-03T13:22:38.443Z,91549.69
2024-02-03T13:25:05.620Z,91559.84
2024-02-03T13:27:32.767Z,91550.28
2024-02-03T13:30:01.804Z,91554.78
2024-02-03T13:32:28.640Z,91554.78
2024-02-03T13:34:57.142Z,91553.09
2024-02-03T13:37:23.961Z,91546.28
2024-02-03T13:39:51.116Z,91557.00
2024-02-03T13:42:17.863Z,91554.91
2024-02-03T13:44:44.740Z,91550.19
2024-02-03T13:47:11.581Z,91551.47
2024-02-03T13:49:38.443Z,91552.53
2024-02-03T13:52:06.309Z,91535.50
2024-02-03T13:54:33.160Z,91548.09
2024-02-03T13:56:59.938Z,91542.00
2024-02-03T13:59:29.448Z,91541.19
2024-02-03T14:01:56.282Z,91540.88
2024-02-03T14:04:23.096Z,91545.06
2024-02-03T14:06:49.949Z,91542.44
2024-02-03T14:09:16.843Z,91546.25
2024-02-03T14:11:50.959Z,91554.72
2024-02-03T14:14:23.237Z,91554.41
2024-02-03T14:16:51.714Z,91549.22
2024-02-03T14:19:18.607Z,91548.13
2024-02-03T14:21:47.188Z,91551.09
2024-02-03T14:24:14.339Z,91546.34
2024-02-03T14:26:41.932Z,91539.75
2024-02-03T14:29:10.059Z,91541.34
2024-02-03T14:31:36.785Z,91539.25
2024-02-03T14:34:03.567Z,91533.91
2024-02-03T14:36:31.643Z,91544.16
2024-02-03T14:39:02.527Z,91532.28
2024-02-03T14:41:29.385Z,91521.91
2024-02-03T14:43:56.010Z,91522.72
2024-02-03T14:46:22.703Z,91526.03
2024-02-03T14:48:50.739Z,91517.81
2024-02-03T14:51:17.727Z,91521.78
2024-02-03T14:53:44.520Z,91517.75
2024-02-03T14:56:12.249Z,91517.94
2024-02-03T14:58:39.286Z,91514.34
2024-02-03T15:01:13.974Z,91511.44
2024-02-03T15:03:40.910Z,91512.22
2024-02-03T15:06:08.028Z,91515.88
2024-02-03T15:08:35.174Z,91507.88
2024-02-03T15:11:02.355Z,91508.31
2024-02-03T15:13:29.643Z,91503.22
2024-02-03T15:15:56.406Z,91507.50
2024-02-03T15:18:27.163Z,91491.34
2024-02-03T15:20:54.672Z,91508.25
2024-02-03T15:23:21.519Z,91512.97
2024-02-03T15:25:49.346Z,91507.91
2024-02-03T15:28:16.037Z,91515.63
2024-02-03T15:30:42.850Z,91505.94
2024-02-03T15:33:10.238Z,91508.22
2024-02-03T15:35:47.639Z,91495.88
2024-02-03T15:38:14.382Z,91511.66
2024-02-03T15:40:41.076Z,91502.72
2024-02-03T15:43:07.805Z,91499.69
2024-02-03T15:45:34.565Z,91510.88
2024-02-03T15:48:02.454Z,91504.72
2024-02-03T15:50:31.087Z,91506.09
2024-02-03T15:52:58.274Z,91506.75
2024-02-03T15:55:29.623Z,91507.34
2024-02-03T15:57:57.804Z,91505.81
2024-02-03T16:00:26.026Z,91514.66
2024-02-03T16:02:53.189Z,91500.19
2024-02-03T16:05:20.576Z,91507.88
2024-02-03T16:07:47.469Z,91511.66
2024-02-03T16:10:14.589Z,91504.34
2024-02-03T16:12:42.585Z,91502.53
2024-02-03T16:15:10.512Z,91508.25
2024-02-03T16:17:37.505Z,91500.53
2024-02-03T16:20:06.133Z,91500.28
2024-02-03T16:22:33.633Z,91508.63
2024-02-03T16:25:02.099Z,91503.25
2024-02-03T16:27:29.627Z,91517.03
2024-02-03T16:29:57.653Z,91510.44
2024-02-03T16:32:24.337Z,91516.41
2024-02-03T16:34:53.464Z,91517.81
2024-02-03T16:37:20.743Z,91523.97
2024-02-03T16:39:47.569Z,91511.53
2024-02-03T16:42:14.298Z,91520.50
2024-02-03T16:44:40.983Z,91513.13
2024-02-03T16:47:08.156Z,91522.88
2024-02-03T16:49:35.190Z,91520.25
2024-02-03T16:52:02.058Z,91527.84
2024-02-03T16:54:28.814Z,91527.00
2024-02-03T16:56:57.973Z,91523.63
2024-02-03T16:59:25.128Z,91532.78
2024-02-03T17:01:52.079Z,91537.03
2024-02-03T17:04:19.250Z,91525.59
2024-02-03T17:06:49.449Z,91531.97
2024-02-03T17:09:18.031Z,91536.00
2024-02-03T17:11:46.184Z,91530.69
2024-02-03T17:14:15.243Z,91529.94
2024-02-03T17:16:42.374Z,91527.16
2024-02-03T17:19:09.986Z,91531.69
2024-02-03T17:21:37.229Z,91525.75
2024-02-03T17:24:04.593Z,91534.16
2024-02-03T17:26:35.085Z,91524.88
2024-02-03T17:29:03.404Z,91536.25
2024-02-03T17:31:31.233Z,91532.50
2024-02-03T17:33:58.040Z,91538.06
2024-02-03T17:36:24.729Z,91535.78
2024-02-03T17:38:52.387Z,91538.03
2024-02-03T17:41:20.611Z,91548.22
2024-02-03T17:43:47.593Z,91524.66
2024-02-03T17:46:18.087Z,91523.97
2024-02-03T17:48:45.143Z,91525.66
2024-02-03T17:51:13.105Z,91533.81
2024-02-03T17:53:40.608Z,91534.06
2024-02-03T17:56:08.427Z,91545.44
2024-02-03T17:58:35.307Z,91544.81
2024-02-03T18:01:02.171Z,91536.72
2024-02-03T18:03:29.138Z,91534.34
2024-02-03T18:05:55.972Z,91540.34
2024-02-03T18:08:22.753Z,91538.38
2024-02-03T18:10:49.530Z,91534.63
2024-02-03T18:13:16.206Z,91536.00
2024-02-03T18:15:42.993Z,91544.53
2024-02-03T18:18:12.101Z,91542.25
2024-02-03T18:20:40.281Z,91525.84
2024-02-03T18:23:08.434Z,91521.91
2024-02-03T18:25:42.525Z,91532.69
2024-02-03T18:28:09.932Z,91523.56
2024-02-03T18:30:39.741Z,91525.41
2024-02-03T18:33:06.874Z,91526.94
2024-02-03T18:35:33.619Z,91530.00
2024-02-03T18:38:02.167Z,91535.59
2024-02-03T18:40:29.234Z,91550.72
2024-02-03T18:42:56.884Z,91562.25
2024-02-03T18:45:24.842Z,91553.88
2024-02-03T18:47:53.143Z,91558.72
2024-02-03T18:50:19.977Z,91564.53
2024-02-03T18:52:46.700Z,91573.06
2024-02-03T18:55:13.418Z,91580.38
2024-02-03T18:57:40.679Z,91592.22
2024-02-03T19:00:08.427Z,91579.13
2024-02-03T19:02:35.162Z,91582.19
2024-02-03T19:05:02.098Z,91589.41
2024-02-03T19:07:31.471Z,91590.13
2024-02-03T19:09:58.138Z,91583.91
2024-02-03T19:12:25.245Z,91584.38
2024-02-03T19:14:52.071Z,91582.09
2024-02-03T19:17:18.801Z,91581.31
2024-02-03T19:19:45.906Z,91567.75
2024-02-03T19:22:14.311Z,91577.19
2024-02-03T19:24:41.170Z,91578.75
2024-02-03T19:27:07.859Z,91585.44
2024-02-03T19:29:34.797Z,91583.31
2024-02-03T19:32:04.726Z,91592.25
2024-02-03T19:34:32.898Z,91607.75
2024-02-03T19:37:00.147Z,91584.63
2024-02-03T19:39:27.375Z,91591.22
2024-02-03T19:41:59.157Z,91596.94
2024-02-03T19:44:25.827Z,91601.66
2024-02-03T19:46:52.977Z,91600.44
2024-02-03T19:49:20.754Z,91613.09
2024-02-03T19:51:47.857Z,91605.53
2024-02-03T19:54:14.578Z,91618.06
2024-02-03T19:56:41.408Z,91617.47
2024-02-03T19:59:08.883Z,91618.06
2024-02-03T20:01:37.110Z,91596.88
2024-02-03T20:04:04.478Z,91617.75
2024-02-03T20:06:39.695Z,91609.06
2024-02-03T20:09:07.053Z,91613.91
2024-02-03T20:11:34.059Z,91617.72
2024-02-03T20:14:00.831Z,91621.13
2024-02-03T20:16:27.670Z,91616.38
2024-02-03T20:18:57.226Z,91611.44
2024-02-03T20:21:24.072Z,91616.66
2024-02-03T20:23:50.789Z,91614.50
2024-02-03T20:26:19.653Z,91607.63
2024-02-03T20:28:46.705Z,91607.69
2024-02-03T20:31:13.848Z,91617.41
2024-02-03T20:33:41.312Z,91608.69
2024-02-03T20:36:11.389Z,91615.69
2024-02-03T20:38:40.692Z,91611.13
2024-02-03T20:41:07.928Z,91606.16
2024-02-03T20:43:36.673Z,91606.06
2024-02-03T20:46:03.622Z,91607.13
2024-02-03T20:48:30.548Z,91602.19
2024-02-03T20:50:57.582Z,91601.75
2024-02-03T20:53:32.612Z,91598.88
2024-02-03T20:55:59.428Z,91612.31
2024-02-03T20:58:26.450Z,91609.03
2024-02-03T21:00:53.551Z,91609.81
2024-02-03T21:03:20.532Z,91609.03
2024-02-03T21:05:47.453Z,91616.19
2024-02-03T21:08:17.529Z,91611.44
2024-02-03T21:10:44.546Z,91616.50
2024-02-03T21:13:13.861Z,91617.78
2024-02-03T21:15:45.163Z,91610.00
2024-02-03T21:18:16.314Z,91610.41
2024-02-03T21:20:43.487Z,91595.16
2024-02-03T21:23:13.281Z,91600.13
2024-02-03T21:25:40.181Z,91609.22
2024-02-03T21:28:07.051Z,91607.47
2024-02-03T21:30:34.415Z,91609.34
2024-02-03T21:33:01.156Z,91593.69
2024-02-03T21:35:27.821Z,91588.88
2024-02-03T21:37:55.209Z,91587.72
2024-02-03T21:40:21.865Z,91600.13
2024-02-03T21:42:48.545Z,91584.34
2024-02-03T21:45:15.429Z,91601.06
2024-02-03T21:47:42.179Z,91595.28
2024-02-03T21:50:10.173Z,91598.81
2024-02-03T21:52:39.723Z,91596.22
2024-02-03T21:55:06.993Z,91597.84
2024-02-03T21:57:33.744Z,91601.38
2024-02-03T22:00:00.744Z,91597.22
2024-02-03T22:02:27.659Z,91587.28
2024-02-03T22:04:54.548Z,91588.00
2024-02-03T22:07:23.984Z,91583.88
2024-02-03T22:09:50.831Z,91581.84
2024-02-03T22:12:17.570Z,91593.03
2024-02-03T22:14:44.250Z,91588.81
2024-02-03T22:17:11.793Z,91589.16
2024-02-03T22:19:38.606Z,91580.59
2024-02-03T22:22:06.469Z,91594.56
2024-02-03T22:24:35.244Z,91588.22
2024-02-03T22:27:02.006Z,91580.38
2024-02-03T22:29:29.867Z,91584.72
2024-02-03T22:31:58.592Z,91589.63
2024-02-03T22:34:25.816Z,91577.38
2024-02-03T22:36:52.764Z,91590.81
2024-02-03T22:39:19.896Z,91571.09
2024-02-03T22:41:46.686Z,91570.00
2024-02-03T22:44:13.469Z,91576.22
2024-02-03T22:46:40.166Z,91575.09
2024-02-03T22:49:06.929Z,91571.31
2024-02-03T22:51:34.055Z,91575.16
2024-02-03T22:54:00.754Z,91570.41
2024-02-03T22:56:27.411Z,91569.81
2024-02-03T22:58:54.186Z,91569.94
2024-02-03T23:01:22.279Z,91559.84
2024-02-03T23:03:50.030Z,91554.13
2024-02-03T23:06:17.615Z,91546.78
2024-02-03T23:08:45.837Z,91549.59
2024-02-03T23:11:13.015Z,91536.81
2024-02-03T23:13:40.936Z,91533.81
2024-02-03T23:16:08.060Z,91533.88
2024-02-03T23:18:35.279Z,91531.94
2024-02-03T23:21:05.155Z,91526.81
2024-02-03T23:23:35.873Z,91535.09
2024-02-03T23:26:03.014Z,91528.41
2024-02-03T23:28:32.387Z,91523.63
2024-02-03T23:31:02.531Z,91526.63
2024-02-03T23:33:29.365Z,91527.00
2024-02-03T23:35:56.080Z,91520.69
2024-02-03T23:38:23.646Z,91527.00
2024-02-03T23:40:50.642Z,91517.63
2024-02-03T23:43:17.811Z,91520.25
2024-02-03T23:45:44.569Z,91516.34
2024-02-03T23:48:11.340Z,91519.97
2024-02-03T23:50:38.022Z,91514.56
2024-02-03T23:53:04.962Z,91522.53
2024-02-03T23:55:31.625Z,91522.91
2024-02-03T23:57:58.611Z,91517.28
